Brak ostrzeżeń pogodowych   -   Brak ostrzeżeń pogodowych

Raporty Pogodowe z Lotnisk

 

EPKK - Krakow/Balice, Poland
Odległość od stacji: Zd 81km
Aktualizacja: 27/01/2020 14:00
Częściowe zachmurzenie
Częściowe zachmurzenie
 Wiatr z PdPdZd
Wiatr: PdPdZd 9 km/h
Temperatura: 4°C
Temperatura Odczuwalna: 2°C
Punkt Rosy: -1°C
Wilgotność Względna: 70%
Ciśnienie Względne: 1014 hPa
Chmury: Częściowe zachmurzenie
Widoczność: 7 km
2020/01/27 13:00 EPKK 271300Z 21005KT 180V240 7000 NSC 04/M01 Q1014
EPRZ - Rzeszow/Jasionka, Poland
Odległość od stacji: Ws 81km
Aktualizacja: 27/01/2020 14:00
Bezchmurnie
Bezchmurnie
 Wiatr z ZdPdZa
Wiatr: ZdPdZa 17 km/h
Temperatura: 7°C
Temperatura Odczuwalna: 4°C
Punkt Rosy: -2°C
Wilgotność Względna: 53%
Ciśnienie Względne: 1014 hPa
Podsumowanie: Bezchmurnie
Widoczność: większa niż 10 km
2020/01/27 13:00 EPRZ 271300Z 25009KT CAVOK 07/M02 Q1014
 
EPKT - Katowice/Pyrzowice, Poland
Odległość od stacji: ZdPnZd 141km
Aktualizacja: 27/01/2020 14:00
Bezchmurnie
Bezchmurnie
 Wiatr z PdZd
Wiatr: PdZd 11 km/h
Temperatura: 6°C
Temperatura Odczuwalna: 4°C
Punkt Rosy: -1°C
Wilgotność Względna: 61%
Ciśnienie Względne: 1014 hPa
Podsumowanie: Bezchmurnie
Widoczność: większa niż 10 km
2020/01/27 13:00 EPKT 271300Z 22006KT CAVOK 06/M01 Q1014
EPWA - Warsaw/Okecie, Poland
Odległość od stacji: Pn 240km
Aktualizacja: 27/01/2020 14:00
Przeważnie pochmurno
Przeważnie pochmurno
 Wiatr z varies
Wiatr: varies 4 km/h
Temperatura: 5°C
Punkt Rosy: 1°C
Wilgotność Względna: 76%
Ciśnienie Względne: 1013 hPa
Chmury: Przeważnie pochmurno
Widoczność: 10 km
Szczegóły chmur: Małe zachmurzenie 1189 m
Przeważnie pochmurno 1494 m
2020/01/27 13:00 EPWA 271300Z VRB02KT 9999 FEW039 BKN049 05/01 Q1013 NOSIG
 
EPLL - Lodz/Lublinek, Poland
Odległość od stacji: PnPnZd 218km
Aktualizacja: 27/01/2020 14:00
Przeważnie pochmurno
Przeważnie pochmurno
 Wiatr z PdPdZd
Wiatr: PdPdZd 9 km/h
Temperatura: 4°C
Temperatura Odczuwalna: 2°C
Punkt Rosy: 1°C
Wilgotność Względna: 81%
Ciśnienie Względne: 1012 hPa
Chmury: Przeważnie pochmurno
Widoczność: 10 km
Szczegóły chmur: Przeważnie pochmurno 274 m
2020/01/27 13:00 EPLL 271300Z 20005KT 160V230 9999 BKN009 04/01 Q1012
EPWR - Wroclaw/Strachowice, Poland
Odległość od stacji: ZdPnZd 311km
Aktualizacja: 27/01/2020 14:00
Bezchmurnie
Bezchmurnie
 Wiatr z Pd
Wiatr: Pd 13 km/h
Temperatura: 9°C
Temperatura Odczuwalna: 7°C
Punkt Rosy: 3°C
Wilgotność Względna: 66%
Ciśnienie Względne: 1013 hPa
Podsumowanie: Bezchmurnie
Widoczność: większa niż 10 km
2020/01/27 13:00 EPWR 271300Z 19007KT CAVOK 09/03 Q1013
 
EPGD - Gdansk/Rebiechowo, Poland
Odległość od stacji: PnZd 553km
Aktualizacja: 27/01/2020 14:00
Bezchmurnie
Bezchmurnie
 Wiatr z Pd
Wiatr: Pd 11 km/h
Temperatura: 3°C
Temperatura Odczuwalna: 0°C
Punkt Rosy: 1°C
Wilgotność Względna: 87%
Ciśnienie Względne: 1009 hPa
Podsumowanie: Bezchmurnie
Widoczność: większa niż 10 km
2020/01/27 13:00 EPGD 271300Z 18006KT 150V220 CAVOK 03/01 Q1009
EPSC - Szczecin/Goleniow, Poland
Odległość od stacji: ZdPnZd 635km
Aktualizacja: 27/01/2020 14:00
Bezchmurnie
Bezchmurnie
 Wiatr z Pd
Wiatr: Pd 13 km/h
Temperatura: 6°C
Temperatura Odczuwalna: 3°C
Punkt Rosy: 3°C
Wilgotność Względna: 81%
Ciśnienie Względne: 1009 hPa
Podsumowanie: Bezchmurnie
Widoczność: większa niż 10 km
2020/01/27 13:00 EPSC 271300Z 17007KT CAVOK 06/03 Q1009